createdAt,value
2017-07-18T00:01:21.823Z,6.63
2017-07-18T00:03:56.931Z,7.17
2017-07-18T00:06:25.963Z,6.50
2017-07-18T00:08:54.003Z,6.27
2017-07-18T00:11:26.299Z,7.53
2017-07-18T00:13:56.291Z,7.63
2017-07-18T00:16:30.582Z,8.73
2017-07-18T00:21:57.587Z,7.40
2017-07-18T00:24:25.644Z,7.50
2017-07-18T00:26:59.527Z,6.40
2017-07-18T00:29:27.592Z,7.10
2017-07-18T00:32:03.360Z,7.43
2017-07-18T00:34:33.395Z,6.60
2017-07-18T00:37:07.395Z,7.30
2017-07-18T00:39:41.207Z,7.57
2017-07-18T00:42:15.560Z,7.50
2017-07-18T00:44:56.727Z,7.10
2017-07-18T00:47:25.738Z,7.53
2017-07-18T00:49:54.682Z,8.40
2017-07-18T00:52:23.680Z,8.53
2017-07-18T00:54:51.739Z,9.03
2017-07-18T00:57:27.911Z,8.00
2017-07-18T00:59:55.983Z,7.20
2017-07-18T01:02:29.311Z,6.53
2017-07-18T01:05:00.866Z,5.90
2017-07-18T01:07:29.815Z,6.20
2017-07-18T01:10:02.939Z,6.57
2017-07-18T01:12:34.555Z,8.03
2017-07-18T01:15:06.955Z,7.60
2017-07-18T01:17:39.551Z,9.70
2017-07-18T01:20:09.531Z,9.27
2017-07-18T01:22:49.237Z,8.67
2017-07-18T01:25:18.303Z,8.80
2017-07-18T01:27:50.654Z,9.20
2017-07-18T01:30:23.144Z,9.27
2017-07-18T01:32:55.007Z,7.43
2017-07-18T01:35:32.963Z,7.47
2017-07-18T01:38:09.547Z,7.90
2017-07-18T01:40:38.783Z,7.83
2017-07-18T01:43:07.762Z,7.43
2017-07-18T01:45:39.494Z,8.07
2017-07-18T01:48:09.511Z,9.50
2017-07-18T01:50:38.500Z,7.93
2017-07-18T01:53:07.483Z,8.40
2017-07-18T01:55:48.918Z,9.30
2017-07-18T01:58:21.071Z,7.10
2017-07-18T02:00:59.346Z,7.40
2017-07-18T02:03:29.434Z,7.33
2017-07-18T02:06:11.304Z,7.37
2017-07-18T02:08:41.315Z,8.43
2017-07-18T02:11:13.038Z,8.30
2017-07-18T02:13:41.094Z,8.63
2017-07-18T02:16:12.347Z,7.40
2017-07-18T02:18:44.886Z,8.00
2017-07-18T02:21:12.914Z,7.93
2017-07-18T02:23:52.920Z,7.90
2017-07-18T02:26:30.546Z,8.00
2017-07-18T02:29:02.297Z,7.83
2017-07-18T02:31:53.798Z,7.90
2017-07-18T02:34:23.746Z,7.33
2017-07-18T02:37:02.430Z,8.50
2017-07-18T02:39:34.426Z,7.80
2017-07-18T02:42:06.982Z,7.23
2017-07-18T02:44:47.035Z,8.90
2017-07-18T02:47:19.938Z,7.80
2017-07-18T02:49:53.542Z,7.80
2017-07-18T02:52:35.471Z,8.50
2017-07-18T02:55:06.578Z,7.90
2017-07-18T02:57:40.163Z,7.80
2017-07-18T03:00:08.219Z,8.30
2017-07-18T03:02:38.167Z,7.80
2017-07-18T03:05:11.914Z,7.70
2017-07-18T03:07:41.866Z,7.77
2017-07-18T03:10:17.634Z,7.80
2017-07-18T03:12:45.662Z,8.30
2017-07-18T03:15:14.681Z,7.90
2017-07-18T03:17:44.886Z,8.17
2017-07-18T03:20:17.386Z,8.60
2017-07-18T03:22:46.371Z,8.03
2017-07-18T03:25:17.421Z,8.33
2017-07-18T03:27:53.473Z,8.00
2017-07-18T03:30:23.490Z,7.50
2017-07-18T03:32:52.451Z,8.10
2017-07-18T03:35:37.082Z,8.97
2017-07-18T03:38:08.175Z,9.13
2017-07-18T03:40:36.242Z,9.77
2017-07-18T03:43:05.277Z,9.53
2017-07-18T03:45:43.550Z,7.67
2017-07-18T03:48:22.146Z,8.53
2017-07-18T03:50:52.244Z,8.73
2017-07-18T03:53:24.765Z,9.13
2017-07-18T03:55:54.801Z,8.43
2017-07-18T03:58:24.801Z,8.17
2017-07-18T04:00:53.818Z,9.00
2017-07-18T04:03:47.413Z,9.07
2017-07-18T04:06:19.742Z,7.80
2017-07-18T04:08:48.771Z,7.17
2017-07-18T04:11:23.425Z,7.83
2017-07-18T04:13:56.345Z,8.33
2017-07-18T04:16:28.959Z,9.63
2017-07-18T04:19:02.643Z,9.40
2017-07-18T04:21:52.173Z,9.17
2017-07-18T04:24:20.222Z,7.47
2017-07-18T04:26:50.788Z,7.30
2017-07-18T04:29:26.537Z,7.40
2017-07-18T04:32:00.437Z,7.90
2017-07-18T04:34:35.673Z,7.27
2017-07-18T04:37:04.675Z,8.47
2017-07-18T04:39:38.908Z,7.27
2017-07-18T04:42:07.890Z,7.80
2017-07-18T04:44:35.937Z,7.83
2017-07-18T04:47:08.080Z,7.50
2017-07-18T04:49:37.108Z,8.20
2017-07-18T04:52:07.146Z,7.67
2017-07-18T04:54:37.186Z,7.20
2017-07-18T04:57:11.056Z,6.70
2017-07-18T04:59:54.140Z,7.30
2017-07-18T05:02:25.105Z,6.70
2017-07-18T05:04:57.701Z,7.00
2017-07-18T05:07:27.732Z,8.03
2017-07-18T05:09:55.778Z,8.00
2017-07-18T05:12:31.501Z,7.57
2017-07-18T05:15:03.017Z,7.20
2017-07-18T05:17:37.960Z,6.60
2017-07-18T05:20:17.461Z,6.83
2017-07-18T05:23:06.202Z,7.30
2017-07-18T05:25:59.888Z,5.90
2017-07-18T05:28:38.301Z,6.50
2017-07-18T05:31:10.636Z,6.10
2017-07-18T05:33:46.956Z,6.77
2017-07-18T05:39:13.383Z,5.30
2017-07-18T05:41:42.424Z,5.50
2017-07-18T05:44:13.980Z,5.13
2017-07-18T05:46:45.721Z,4.90
2017-07-18T05:49:17.408Z,6.07
2017-07-18T05:51:47.260Z,4.80
2017-07-18T06:00:14.468Z,5.13
2017-07-18T06:08:46.953Z,5.17
2017-07-18T06:11:39.275Z,5.60
2017-07-18T06:14:31.609Z,5.30
2017-07-18T06:17:03.400Z,5.30
2017-07-18T06:31:23.839Z,5.77
2017-07-18T06:36:59.664Z,5.80
2017-07-18T06:42:28.523Z,6.07
2017-07-18T06:45:06.692Z,5.93
2017-07-18T06:47:52.150Z,5.60
2017-07-18T06:50:26.240Z,6.40
2017-07-18T06:53:13.384Z,5.80
2017-07-18T07:04:27.720Z,5.40
2017-07-18T07:07:03.389Z,5.60
2017-07-18T07:12:26.296Z,4.80
2017-07-18T07:15:11.372Z,5.00
2017-07-18T07:17:51.104Z,5.00
2017-07-18T07:23:13.927Z,5.17
2017-07-18T07:25:50.450Z,5.13
2017-07-18T07:28:23.317Z,4.83
2017-07-18T07:31:15.703Z,5.30
2017-07-18T07:33:54.230Z,5.07
2017-07-18T07:39:36.395Z,4.70
2017-07-18T07:42:15.815Z,4.60
2017-07-18T07:45:07.639Z,5.20
2017-07-18T07:50:50.130Z,4.03
2017-07-18T07:53:24.831Z,4.63
2017-07-18T07:55:55.136Z,4.40
2017-07-18T08:01:24.035Z,4.30
2017-07-18T08:06:45.830Z,5.10
2017-07-18T08:09:37.399Z,5.20
2017-07-18T08:12:15.675Z,5.03
2017-07-18T08:14:45.626Z,4.17
2017-07-18T08:17:26.318Z,4.80
2017-07-18T08:19:56.243Z,4.80
2017-07-18T08:22:25.162Z,4.80
2017-07-18T08:25:17.227Z,4.13
2017-07-18T08:28:03.002Z,4.27
2017-07-18T08:30:50.830Z,4.50
2017-07-18T08:33:28.942Z,4.77
2017-07-18T08:36:05.509Z,4.53
2017-07-18T08:38:47.662Z,4.90
2017-07-18T08:44:10.539Z,4.73
2017-07-18T08:46:50.138Z,4.90
2017-07-18T08:49:33.309Z,3.93
2017-07-18T08:52:24.225Z,4.33
2017-07-18T08:57:52.898Z,3.83
2017-07-18T09:00:27.373Z,4.60
2017-07-18T09:09:02.610Z,3.70
2017-07-18T09:11:39.165Z,4.13
2017-07-18T09:14:08.110Z,4.10
2017-07-18T09:16:36.143Z,3.53
2017-07-18T09:19:04.169Z,3.90
2017-07-18T09:21:36.218Z,3.60
2017-07-18T09:24:07.749Z,3.73
2017-07-18T09:29:32.498Z,3.53
2017-07-18T09:32:08.745Z,3.90
2017-07-18T09:34:47.365Z,3.40
2017-07-18T09:37:17.414Z,3.80
2017-07-18T09:42:38.877Z,3.17
2017-07-18T09:45:10.817Z,3.50
2017-07-18T09:47:42.389Z,3.80
2017-07-18T09:50:10.413Z,3.10
2017-07-18T09:52:49.221Z,4.20
2017-07-18T09:55:18.163Z,3.80
2017-07-18T09:58:04.981Z,3.60
2017-07-18T10:03:13.301Z,3.20
2017-07-18T10:08:38.509Z,3.30
2017-07-18T10:11:08.497Z,3.13
2017-07-18T10:14:01.357Z,3.40
2017-07-18T10:16:40.585Z,3.10
2017-07-18T10:22:07.589Z,3.27
2017-07-18T10:24:39.645Z,3.17
2017-07-18T10:27:14.881Z,3.20
2017-07-18T10:30:07.785Z,3.47
2017-07-18T10:33:01.033Z,3.80
2017-07-18T10:38:31.896Z,3.03
2017-07-18T10:43:56.757Z,3.40
2017-07-18T10:52:29.092Z,3.30
2017-07-18T10:55:07.908Z,2.90
2017-07-18T10:57:55.661Z,2.90
2017-07-18T11:00:37.424Z,2.90
2017-07-18T11:03:08.553Z,2.93
2017-07-18T11:05:53.318Z,2.50
2017-07-18T11:11:26.281Z,3.07
2017-07-18T11:14:06.756Z,2.80
2017-07-18T11:16:39.541Z,2.83
2017-07-18T11:19:07.596Z,3.07
2017-07-18T11:21:36.536Z,2.63
2017-07-18T11:24:22.544Z,2.83
2017-07-18T11:26:51.465Z,2.67
2017-07-18T11:32:18.504Z,2.83
2017-07-18T11:34:50.080Z,3.33
2017-07-18T11:37:29.320Z,2.50
2017-07-18T11:40:08.966Z,2.97
2017-07-18T11:42:47.792Z,2.70
2017-07-18T11:45:21.544Z,2.80
2017-07-18T11:47:51.754Z,2.83
2017-07-18T11:50:19.768Z,2.77
2017-07-18T11:53:00.600Z,2.50
2017-07-18T11:55:30.528Z,2.80
2017-07-18T11:58:00.536Z,2.73
2017-07-18T12:00:31.840Z,2.73
2017-07-18T12:03:08.172Z,2.77
2017-07-18T12:05:46.880Z,2.90
2017-07-18T12:08:16.820Z,2.70
2017-07-18T12:10:45.743Z,2.77
2017-07-18T12:16:08.663Z,2.50
2017-07-18T12:24:35.652Z,2.43
2017-07-18T12:27:09.411Z,2.30
2017-07-18T12:29:57.717Z,2.43
2017-07-18T12:38:12.311Z,2.73
2017-07-18T12:40:52.828Z,3.40
2017-07-18T12:43:21.739Z,2.90
2017-07-18T12:45:50.655Z,2.47
2017-07-18T12:48:18.690Z,3.07
2017-07-18T12:51:00.671Z,3.00
2017-07-18T12:53:39.779Z,3.00
2017-07-18T12:56:19.983Z,3.00
2017-07-18T12:58:55.739Z,2.73
2017-07-18T13:01:23.775Z,2.40
2017-07-18T13:03:55.227Z,2.93
2017-07-18T13:06:27.754Z,2.77
2017-07-18T13:09:03.963Z,3.00
2017-07-18T13:11:43.571Z,2.60
2017-07-18T13:17:07.719Z,2.80
2017-07-18T13:19:39.303Z,2.70
2017-07-18T13:22:08.210Z,2.80
2017-07-18T13:24:47.026Z,2.80
2017-07-18T13:27:15.038Z,2.87
2017-07-18T13:29:55.770Z,3.13
2017-07-18T13:32:32.746Z,2.60
2017-07-18T13:35:08.222Z,2.87
2017-07-18T13:37:42.915Z,3.23
2017-07-18T13:40:15.450Z,2.83
2017-07-18T13:42:43.474Z,2.40
2017-07-18T13:45:12.394Z,2.90
2017-07-18T13:47:43.954Z,3.43
2017-07-18T13:50:15.442Z,2.50
2017-07-18T13:53:00.410Z,2.87
2017-07-18T13:55:33.630Z,3.07
2017-07-18T13:58:02.558Z,2.80
2017-07-18T14:00:33.790Z,2.83
2017-07-18T14:03:03.766Z,3.40
2017-07-18T14:05:34.230Z,2.97
2017-07-18T14:08:08.634Z,2.90
2017-07-18T14:10:37.614Z,2.40
2017-07-18T14:13:17.722Z,3.13
2017-07-18T14:16:05.478Z,3.00
2017-07-18T14:18:36.953Z,3.20
2017-07-18T14:21:16.258Z,3.40
2017-07-18T14:23:50.646Z,2.60
2017-07-18T14:26:37.826Z,3.03
2017-07-18T14:29:10.998Z,3.10
2017-07-18T14:31:53.713Z,2.80
2017-07-18T14:34:34.261Z,2.87
2017-07-18T14:37:07.946Z,2.83
2017-07-18T14:40:00.670Z,3.20
2017-07-18T14:42:32.185Z,2.83
2017-07-18T14:45:04.634Z,2.90
2017-07-18T14:47:38.950Z,3.23
2017-07-18T14:50:08.889Z,2.33
2017-07-18T14:52:40.351Z,2.60
2017-07-18T14:55:08.396Z,2.70
2017-07-18T14:57:41.409Z,3.20
2017-07-18T15:00:09.453Z,3.27
2017-07-18T15:02:38.449Z,3.10
2017-07-18T15:05:18.833Z,3.33
2017-07-18T15:07:47.785Z,3.20
2017-07-18T15:10:16.818Z,3.03
2017-07-18T15:12:45.805Z,3.30
2017-07-18T15:15:13.829Z,3.70
2017-07-18T15:17:46.892Z,3.20
2017-07-18T15:20:14.913Z,3.70
2017-07-18T15:22:53.525Z,3.60
2017-07-18T15:25:23.449Z,3.23
2017-07-18T15:27:56.031Z,4.13
2017-07-18T15:30:32.266Z,4.10
2017-07-18T15:33:02.246Z,2.70
2017-07-18T15:35:32.173Z,2.63
2017-07-18T15:38:06.737Z,3.20
2017-07-18T15:40:36.749Z,3.37
2017-07-18T15:43:06.696Z,4.23
2017-07-18T15:45:35.921Z,3.23
2017-07-18T15:48:05.977Z,3.50
2017-07-18T15:50:34.017Z,2.73
2017-07-18T15:53:07.797Z,3.70
2017-07-18T15:55:37.721Z,2.90
2017-07-18T15:58:08.769Z,2.93
2017-07-18T16:01:00.053Z,2.60
2017-07-18T16:03:29.065Z,3.10
2017-07-18T16:06:10.305Z,3.20
2017-07-18T16:11:31.353Z,2.83
2017-07-18T16:14:01.277Z,3.57
2017-07-18T16:16:30.253Z,2.60
2017-07-18T16:19:08.081Z,3.17
2017-07-18T16:21:56.805Z,3.23
2017-07-18T16:24:25.736Z,3.03
2017-07-18T16:26:55.669Z,3.10
2017-07-18T16:29:23.713Z,3.63
2017-07-18T16:32:08.444Z,3.50
2017-07-18T16:35:00.520Z,3.40
2017-07-18T16:37:46.297Z,3.47
2017-07-18T16:40:15.249Z,3.20
2017-07-18T16:42:47.409Z,3.40
2017-07-18T16:45:20.602Z,3.47
2017-07-18T16:47:54.136Z,3.87
2017-07-18T16:50:40.000Z,3.57
2017-07-18T16:53:08.921Z,3.50
2017-07-18T16:55:40.672Z,3.13
2017-07-18T16:58:08.709Z,3.60
2017-07-18T17:00:38.504Z,3.53
2017-07-18T17:03:15.160Z,3.20
2017-07-18T17:05:45.107Z,4.47
2017-07-18T17:08:14.100Z,3.73
2017-07-18T17:10:44.044Z,3.63
2017-07-18T17:13:14.020Z,3.10
2017-07-18T17:15:47.745Z,3.93
2017-07-18T17:18:32.557Z,3.73
2017-07-18T17:21:07.296Z,9.63
2017-07-18T17:23:39.184Z,3.03
2017-07-18T17:26:09.116Z,3.53
2017-07-18T17:28:38.036Z,3.53
2017-07-18T17:31:06.968Z,3.00
2017-07-18T17:33:55.283Z,3.67
2017-07-18T17:36:34.520Z,3.47
2017-07-18T17:39:05.488Z,4.10
2017-07-18T17:41:42.759Z,3.33
2017-07-18T17:44:10.796Z,3.23
2017-07-18T17:46:39.752Z,3.33
2017-07-18T17:49:07.948Z,3.80
2017-07-18T17:51:36.950Z,3.40
2017-07-18T17:54:08.792Z,4.27
2017-07-18T17:56:36.828Z,4.20
2017-07-18T17:59:05.875Z,3.40
2017-07-18T18:01:35.897Z,3.70
2017-07-18T18:04:08.887Z,3.50
2017-07-18T18:06:41.327Z,3.73
2017-07-18T18:09:09.351Z,3.80
2017-07-18T18:11:37.374Z,3.83
2017-07-18T18:14:05.412Z,3.70
2017-07-18T18:16:34.118Z,3.37
2017-07-18T18:19:02.169Z,4.00
2017-07-18T18:21:31.195Z,3.63
2017-07-18T18:23:59.224Z,3.50
2017-07-18T18:26:27.268Z,3.90
2017-07-18T18:28:55.337Z,3.70
2017-07-18T18:31:23.364Z,4.00
2017-07-18T18:33:54.967Z,3.90
2017-07-18T18:36:23.004Z,4.70
2017-07-18T18:38:51.984Z,3.97
2017-07-18T18:41:28.232Z,4.00
2017-07-18T18:44:06.843Z,4.10
2017-07-18T18:46:39.868Z,4.20
2017-07-18T18:49:07.907Z,4.10
2017-07-18T18:51:41.321Z,4.10
2017-07-18T18:54:10.270Z,3.97
2017-07-18T18:56:44.928Z,4.20
2017-07-18T18:59:14.863Z,3.83
2017-07-18T19:01:43.863Z,3.93
2017-07-18T19:04:12.075Z,4.43
2017-07-18T19:06:42.193Z,4.27
2017-07-18T19:09:10.243Z,3.97
2017-07-18T19:11:43.508Z,4.40
2017-07-18T19:14:11.615Z,5.30
2017-07-18T19:16:40.555Z,4.10
2017-07-18T19:19:08.719Z,5.10
2017-07-18T19:21:40.814Z,3.77
2017-07-18T19:24:12.396Z,4.03
2017-07-18T19:26:44.735Z,3.80
2017-07-18T19:29:16.254Z,5.53
2017-07-18T19:31:47.843Z,5.00
2017-07-18T19:34:22.983Z,5.07
2017-07-18T19:36:51.011Z,4.50
2017-07-18T19:39:19.048Z,3.80
2017-07-18T19:41:47.119Z,3.80
2017-07-18T19:44:15.223Z,4.13
2017-07-18T19:46:53.566Z,5.67
2017-07-18T19:49:22.666Z,4.80
2017-07-18T19:51:52.478Z,5.03
2017-07-18T19:54:25.431Z,5.00
2017-07-18T19:56:54.426Z,4.40
2017-07-18T19:59:22.475Z,4.60
2017-07-18T20:01:56.583Z,4.30
2017-07-18T20:04:28.355Z,4.37
2017-07-18T20:07:02.639Z,4.27
2017-07-18T20:09:35.750Z,5.17
2017-07-18T20:12:17.430Z,4.37
2017-07-18T20:14:45.451Z,4.40
2017-07-18T20:17:13.499Z,4.60
2017-07-18T20:19:41.538Z,3.90
2017-07-18T20:22:11.459Z,5.70
2017-07-18T20:24:56.942Z,4.13
2017-07-18T20:27:24.993Z,4.03
2017-07-18T20:29:56.542Z,4.60
2017-07-18T20:32:31.174Z,4.03
2017-07-18T20:35:02.871Z,3.87
2017-07-18T20:37:31.814Z,4.47
2017-07-18T20:39:59.854Z,4.80
2017-07-18T20:42:32.446Z,4.90
2017-07-18T20:45:02.378Z,3.83
2017-07-18T20:47:40.122Z,3.80
2017-07-18T20:50:11.874Z,4.40
2017-07-18T20:52:41.079Z,5.70
2017-07-18T20:55:14.054Z,4.73
2017-07-18T20:57:42.158Z,5.40
2017-07-18T21:00:12.315Z,4.27
2017-07-18T21:02:46.071Z,4.00
2017-07-18T21:05:16.074Z,4.10
2017-07-18T21:07:44.090Z,4.47
2017-07-18T21:10:13.031Z,4.80
2017-07-18T21:12:47.334Z,5.37
2017-07-18T21:15:18.217Z,5.30
2017-07-18T21:17:50.042Z,4.10
2017-07-18T21:20:25.390Z,4.93
2017-07-18T21:22:54.370Z,4.90
2017-07-18T21:25:26.570Z,4.77
2017-07-18T21:27:58.130Z,4.60
2017-07-18T21:30:28.129Z,7.40
2017-07-18T21:33:06.762Z,5.37
2017-07-18T21:35:34.807Z,4.90
2017-07-18T21:38:06.429Z,4.37
2017-07-18T21:40:34.574Z,4.80
2017-07-18T21:43:04.185Z,4.80
2017-07-18T21:45:36.538Z,6.10
2017-07-18T21:48:11.818Z,4.20
2017-07-18T21:50:51.357Z,4.40
2017-07-18T21:53:19.385Z,5.30
2017-07-18T21:55:51.074Z,6.00
2017-07-18T21:58:21.016Z,6.20
2017-07-18T22:00:49.057Z,6.80
2017-07-18T22:03:18.124Z,5.93
2017-07-18T22:05:51.085Z,5.13
2017-07-18T22:08:23.453Z,4.80
2017-07-18T22:10:56.914Z,16.87
2017-07-18T22:13:25.973Z,5.90
2017-07-18T22:15:54.953Z,6.20
2017-07-18T22:18:23.925Z,8.10
2017-07-18T22:20:53.968Z,5.83
2017-07-18T22:23:22.237Z,6.77
2017-07-18T22:25:51.206Z,5.80
2017-07-18T22:28:20.246Z,5.57
2017-07-18T22:30:49.233Z,5.27
2017-07-18T22:33:18.185Z,5.57
2017-07-18T22:35:47.209Z,6.20
2017-07-18T22:38:19.861Z,6.97
2017-07-18T22:40:48.864Z,6.00
2017-07-18T22:43:16.897Z,6.90
2017-07-18T22:45:48.506Z,6.30
2017-07-18T22:48:26.368Z,5.50
2017-07-18T22:50:54.397Z,6.07
2017-07-18T22:53:24.357Z,5.87
2017-07-18T22:55:53.289Z,7.43
2017-07-18T22:58:22.228Z,6.37
2017-07-18T23:00:50.233Z,7.07
2017-07-18T23:03:19.177Z,7.30
2017-07-18T23:05:48.193Z,6.00
2017-07-18T23:08:16.229Z,6.77
2017-07-18T23:10:45.260Z,6.30
2017-07-18T23:13:14.233Z,7.33
2017-07-18T23:15:52.768Z,6.63
2017-07-18T23:18:21.752Z,6.10
2017-07-18T23:20:49.781Z,5.97
2017-07-18T23:23:18.853Z,6.60
2017-07-18T23:25:48.773Z,5.83
2017-07-18T23:28:18.724Z,6.67
2017-07-18T23:30:47.864Z,7.00
2017-07-18T23:33:15.888Z,6.53
2017-07-18T23:35:44.854Z,6.77
2017-07-18T23:38:14.836Z,6.70
2017-07-18T23:40:42.856Z,7.90
2017-07-18T23:43:10.908Z,7.50
2017-07-18T23:45:40.832Z,6.73
2017-07-18T23:48:08.860Z,7.73
2017-07-18T23:50:41.828Z,8.53
2017-07-18T23:53:18.422Z,6.77
2017-07-18T23:55:51.016Z,7.13
2017-07-18T23:58:19.980Z,7.23
